sensor_id;sensor_type;location;lat;lon;timestamp;P1;durP1;ratioP1;P2;durP2;ratioP2
63087;SDS011;49173;43.164;27.786;2022-11-22T00:02:01;10.82;;;8.00;;
63087;SDS011;49173;43.164;27.786;2022-11-22T00:04:27;11.32;;;9.13;;
63087;SDS011;49173;43.164;27.786;2022-11-22T00:06:53;12.88;;;9.02;;
63087;SDS011;49173;43.164;27.786;2022-11-22T00:09:19;15.18;;;9.30;;
63087;SDS011;49173;43.164;27.786;2022-11-22T00:11:44;12.10;;;8.95;;
63087;SDS011;49173;43.164;27.786;2022-11-22T00:14:10;11.05;;;8.68;;
63087;SDS011;49173;43.164;27.786;2022-11-22T00:16:36;11.88;;;8.60;;
63087;SDS011;49173;43.164;27.786;2022-11-22T00:19:01;11.13;;;8.43;;
63087;SDS011;49173;43.164;27.786;2022-11-22T00:21:27;13.32;;;9.52;;
63087;SDS011;49173;43.164;27.786;2022-11-22T00:23:56;17.50;;;9.68;;
63087;SDS011;49173;43.164;27.786;2022-11-22T00:26:22;16.17;;;10.65;;
63087;SDS011;49173;43.164;27.786;2022-11-22T00:28:48;15.10;;;10.15;;
63087;SDS011;49173;43.164;27.786;2022-11-22T00:31:14;13.13;;;9.40;;
63087;SDS011;49173;43.164;27.786;2022-11-22T00:33:40;12.07;;;8.80;;
63087;SDS011;49173;43.164;27.786;2022-11-22T00:36:06;11.70;;;7.45;;
63087;SDS011;49173;43.164;27.786;2022-11-22T00:38:32;8.77;;;6.72;;
63087;SDS011;49173;43.164;27.786;2022-11-22T00:40:58;10.50;;;7.15;;
63087;SDS011;49173;43.164;27.786;2022-11-22T00:43:23;9.35;;;7.32;;
63087;SDS011;49173;43.164;27.786;2022-11-22T00:45:49;10.40;;;7.25;;
63087;SDS011;49173;43.164;27.786;2022-11-22T00:48:15;8.60;;;6.63;;
63087;SDS011;49173;43.164;27.786;2022-11-22T00:50:41;10.30;;;6.70;;
63087;SDS011;49173;43.164;27.786;2022-11-22T00:53:07;9.50;;;6.80;;
63087;SDS011;49173;43.164;27.786;2022-11-22T00:55:33;8.82;;;7.10;;
63087;SDS011;49173;43.164;27.786;2022-11-22T00:57:58;8.38;;;6.72;;
63087;SDS011;49173;43.164;27.786;2022-11-22T01:00:24;10.45;;;7.40;;
63087;SDS011;49173;43.164;27.786;2022-11-22T01:02:50;9.90;;;7.15;;
63087;SDS011;49173;43.164;27.786;2022-11-22T01:05:15;10.07;;;7.93;;
63087;SDS011;49173;43.164;27.786;2022-11-22T01:07:42;10.73;;;7.95;;
63087;SDS011;49173;43.164;27.786;2022-11-22T01:10:09;11.90;;;8.73;;
63087;SDS011;49173;43.164;27.786;2022-11-22T01:12:35;14.15;;;9.52;;
63087;SDS011;49173;43.164;27.786;2022-11-22T01:15:01;15.38;;;11.60;;
63087;SDS011;49173;43.164;27.786;2022-11-22T01:17:27;18.75;;;11.68;;
63087;SDS011;49173;43.164;27.786;2022-11-22T01:19:53;17.13;;;11.70;;
63087;SDS011;49173;43.164;27.786;2022-11-22T01:22:18;16.95;;;11.82;;
63087;SDS011;49173;43.164;27.786;2022-11-22T01:24:44;20.90;;;12.27;;
63087;SDS011;49173;43.164;27.786;2022-11-22T01:27:10;14.45;;;10.55;;
63087;SDS011;49173;43.164;27.786;2022-11-22T01:29:36;13.27;;;9.88;;
63087;SDS011;49173;43.164;27.786;2022-11-22T01:32:02;11.18;;;9.50;;
63087;SDS011;49173;43.164;27.786;2022-11-22T01:34:27;15.27;;;10.48;;
63087;SDS011;49173;43.164;27.786;2022-11-22T01:36:53;12.70;;;10.27;;
63087;SDS011;49173;43.164;27.786;2022-11-22T01:39:19;12.40;;;9.95;;
63087;SDS011;49173;43.164;27.786;2022-11-22T01:41:45;13.57;;;9.52;;
63087;SDS011;49173;43.164;27.786;2022-11-22T01:44:23;15.10;;;10.10;;
63087;SDS011;49173;43.164;27.786;2022-11-22T01:47:11;14.88;;;10.45;;
63087;SDS011;49173;43.164;27.786;2022-11-22T01:49:40;15.85;;;11.07;;
63087;SDS011;49173;43.164;27.786;2022-11-22T01:52:11;16.55;;;11.10;;
63087;SDS011;49173;43.164;27.786;2022-11-22T01:54:40;17.35;;;10.50;;
63087;SDS011;49173;43.164;27.786;2022-11-22T01:57:09;16.73;;;11.32;;
63087;SDS011;49173;43.164;27.786;2022-11-22T01:59:40;12.90;;;10.98;;
63087;SDS011;49173;43.164;27.786;2022-11-22T02:02:11;17.42;;;12.07;;
63087;SDS011;49173;43.164;27.786;2022-11-22T02:04:37;15.13;;;11.95;;
63087;SDS011;49173;43.164;27.786;2022-11-22T02:09:37;16.92;;;12.05;;
63087;SDS011;49173;43.164;27.786;2022-11-22T02:12:05;18.08;;;13.20;;
63087;SDS011;49173;43.164;27.786;2022-11-22T02:14:33;17.63;;;13.30;;
63087;SDS011;49173;43.164;27.786;2022-11-22T02:17:00;16.83;;;13.43;;
63087;SDS011;49173;43.164;27.786;2022-11-22T02:21:59;18.70;;;14.23;;
63087;SDS011;49173;43.164;27.786;2022-11-22T02:24:35;17.70;;;12.50;;
63087;SDS011;49173;43.164;27.786;2022-11-22T02:27:06;19.25;;;12.45;;
63087;SDS011;49173;43.164;27.786;2022-11-22T02:29:32;14.23;;;10.00;;
63087;SDS011;49173;43.164;27.786;2022-11-22T02:31:58;14.88;;;10.20;;
63087;SDS011;49173;43.164;27.786;2022-11-22T02:34:24;12.40;;;9.30;;
63087;SDS011;49173;43.164;27.786;2022-11-22T02:36:50;15.63;;;9.77;;
63087;SDS011;49173;43.164;27.786;2022-11-22T02:39:19;14.37;;;10.17;;
63087;SDS011;49173;43.164;27.786;2022-11-22T02:41:49;15.35;;;10.15;;
63087;SDS011;49173;43.164;27.786;2022-11-22T02:44:16;13.15;;;9.50;;
63087;SDS011;49173;43.164;27.786;2022-11-22T02:46:50;15.10;;;9.32;;
63087;SDS011;49173;43.164;27.786;2022-11-22T02:49:20;12.35;;;9.35;;
63087;SDS011;49173;43.164;27.786;2022-11-22T02:51:48;15.02;;;9.70;;
63087;SDS011;49173;43.164;27.786;2022-11-22T02:54:15;14.68;;;9.85;;
63087;SDS011;49173;43.164;27.786;2022-11-22T02:56:40;15.90;;;11.05;;
63087;SDS011;49173;43.164;27.786;2022-11-22T02:59:06;15.35;;;11.38;;
63087;SDS011;49173;43.164;27.786;2022-11-22T03:01:32;16.05;;;12.18;;
63087;SDS011;49173;43.164;27.786;2022-11-22T03:03:58;16.25;;;12.20;;
63087;SDS011;49173;43.164;27.786;2022-11-22T03:06:24;15.68;;;11.82;;
63087;SDS011;49173;43.164;27.786;2022-11-22T03:08:49;16.85;;;12.27;;
63087;SDS011;49173;43.164;27.786;2022-11-22T03:11:15;19.73;;;11.48;;
63087;SDS011;49173;43.164;27.786;2022-11-22T03:13:41;13.07;;;10.18;;
63087;SDS011;49173;43.164;27.786;2022-11-22T03:16:07;13.63;;;9.73;;
63087;SDS011;49173;43.164;27.786;2022-11-22T03:18:33;13.40;;;10.23;;
63087;SDS011;49173;43.164;27.786;2022-11-22T03:21:03;14.27;;;10.70;;
63087;SDS011;49173;43.164;27.786;2022-11-22T03:23:30;14.82;;;11.32;;
63087;SDS011;49173;43.164;27.786;2022-11-22T03:25:57;14.43;;;10.77;;
63087;SDS011;49173;43.164;27.786;2022-11-22T03:28:22;14.90;;;9.63;;
63087;SDS011;49173;43.164;27.786;2022-11-22T03:30:48;15.70;;;10.32;;
63087;SDS011;49173;43.164;27.786;2022-11-22T03:33:14;16.38;;;10.02;;
63087;SDS011;49173;43.164;27.786;2022-11-22T03:35:40;14.48;;;10.60;;
63087;SDS011;49173;43.164;27.786;2022-11-22T03:38:05;15.40;;;11.40;;
63087;SDS011;49173;43.164;27.786;2022-11-22T03:40:32;16.85;;;12.55;;
63087;SDS011;49173;43.164;27.786;2022-11-22T03:42:58;18.10;;;13.57;;
63087;SDS011;49173;43.164;27.786;2022-11-22T03:45:26;16.80;;;13.13;;
63087;SDS011;49173;43.164;27.786;2022-11-22T03:47:52;20.00;;;13.77;;
63087;SDS011;49173;43.164;27.786;2022-11-22T03:50:19;20.17;;;14.20;;
63087;SDS011;49173;43.164;27.786;2022-11-22T03:52:45;19.65;;;14.23;;
63087;SDS011;49173;43.164;27.786;2022-11-22T03:55:10;21.27;;;15.45;;
63087;SDS011;49173;43.164;27.786;2022-11-22T03:57:36;21.00;;;13.90;;
63087;SDS011;49173;43.164;27.786;2022-11-22T04:00:03;19.70;;;13.80;;
63087;SDS011;49173;43.164;27.786;2022-11-22T04:02:29;20.88;;;14.13;;
63087;SDS011;49173;43.164;27.786;2022-11-22T04:04:55;20.77;;;14.05;;
63087;SDS011;49173;43.164;27.786;2022-11-22T04:07:21;16.90;;;12.55;;
63087;SDS011;49173;43.164;27.786;2022-11-22T04:09:47;15.55;;;11.85;;
63087;SDS011;49173;43.164;27.786;2022-11-22T04:12:13;14.88;;;10.98;;
63087;SDS011;49173;43.164;27.786;2022-11-22T04:14:39;16.17;;;11.70;;
63087;SDS011;49173;43.164;27.786;2022-11-22T04:17:23;17.85;;;12.48;;
63087;SDS011;49173;43.164;27.786;2022-11-22T04:20:12;19.02;;;12.52;;
63087;SDS011;49173;43.164;27.786;2022-11-22T04:22:57;16.92;;;12.10;;
63087;SDS011;49173;43.164;27.786;2022-11-22T04:25:29;15.68;;;11.68;;
63087;SDS011;49173;43.164;27.786;2022-11-22T04:27:56;17.27;;;11.60;;
63087;SDS011;49173;43.164;27.786;2022-11-22T04:30:22;17.10;;;12.27;;
63087;SDS011;49173;43.164;27.786;2022-11-22T04:33:09;24.67;;;14.30;;
63087;SDS011;49173;43.164;27.786;2022-11-22T04:35:36;28.65;;;17.65;;
63087;SDS011;49173;43.164;27.786;2022-11-22T04:38:02;24.33;;;14.68;;
63087;SDS011;49173;43.164;27.786;2022-11-22T04:40:28;21.02;;;13.43;;
63087;SDS011;49173;43.164;27.786;2022-11-22T04:42:54;17.25;;;11.43;;
63087;SDS011;49173;43.164;27.786;2022-11-22T04:45:38;17.83;;;11.48;;
63087;SDS011;49173;43.164;27.786;2022-11-22T04:48:04;14.75;;;11.02;;
63087;SDS011;49173;43.164;27.786;2022-11-22T04:50:30;17.38;;;12.60;;
63087;SDS011;49173;43.164;27.786;2022-11-22T04:53:15;15.70;;;12.15;;
63087;SDS011;49173;43.164;27.786;2022-11-22T04:55:43;15.52;;;10.85;;
63087;SDS011;49173;43.164;27.786;2022-11-22T04:58:10;13.95;;;11.13;;
63087;SDS011;49173;43.164;27.786;2022-11-22T05:00:36;14.30;;;10.52;;
63087;SDS011;49173;43.164;27.786;2022-11-22T05:03:03;13.23;;;9.43;;
63087;SDS011;49173;43.164;27.786;2022-11-22T05:05:29;16.67;;;11.98;;
63087;SDS011;49173;43.164;27.786;2022-11-22T05:07:58;23.35;;;15.20;;
63087;SDS011;49173;43.164;27.786;2022-11-22T05:10:24;24.30;;;17.63;;
63087;SDS011;49173;43.164;27.786;2022-11-22T05:12:50;19.02;;;14.63;;
63087;SDS011;49173;43.164;27.786;2022-11-22T05:15:15;17.70;;;12.52;;
63087;SDS011;49173;43.164;27.786;2022-11-22T05:17:41;17.13;;;12.73;;
63087;SDS011;49173;43.164;27.786;2022-11-22T05:20:07;18.05;;;12.40;;
63087;SDS011;49173;43.164;27.786;2022-11-22T05:22:34;16.65;;;12.57;;
63087;SDS011;49173;43.164;27.786;2022-11-22T05:25:38;16.98;;;12.30;;
63087;SDS011;49173;43.164;27.786;2022-11-22T05:28:03;20.38;;;12.85;;
63087;SDS011;49173;43.164;27.786;2022-11-22T05:30:29;17.63;;;13.15;;
63087;SDS011;49173;43.164;27.786;2022-11-22T05:32:55;18.30;;;12.82;;
63087;SDS011;49173;43.164;27.786;2022-11-22T05:35:21;19.05;;;12.35;;
63087;SDS011;49173;43.164;27.786;2022-11-22T05:37:55;22.50;;;14.52;;
63087;SDS011;49173;43.164;27.786;2022-11-22T05:40:22;19.98;;;14.68;;
63087;SDS011;49173;43.164;27.786;2022-11-22T05:42:48;19.70;;;14.93;;
63087;SDS011;49173;43.164;27.786;2022-11-22T05:45:14;21.75;;;15.88;;
63087;SDS011;49173;43.164;27.786;2022-11-22T05:47:40;25.00;;;16.73;;
63087;SDS011;49173;43.164;27.786;2022-11-22T05:50:06;20.92;;;15.63;;
63087;SDS011;49173;43.164;27.786;2022-11-22T05:52:32;24.50;;;16.35;;
63087;SDS011;49173;43.164;27.786;2022-11-22T05:54:58;20.63;;;15.93;;
63087;SDS011;49173;43.164;27.786;2022-11-22T05:57:24;22.25;;;15.95;;
63087;SDS011;49173;43.164;27.786;2022-11-22T05:59:50;21.52;;;15.35;;
63087;SDS011;49173;43.164;27.786;2022-11-22T06:02:16;17.55;;;13.32;;
63087;SDS011;49173;43.164;27.786;2022-11-22T06:04:42;16.98;;;11.73;;
63087;SDS011;49173;43.164;27.786;2022-11-22T06:07:08;19.80;;;12.38;;
63087;SDS011;49173;43.164;27.786;2022-11-22T06:09:34;17.13;;;11.57;;
63087;SDS011;49173;43.164;27.786;2022-11-22T06:11:59;20.10;;;12.07;;
63087;SDS011;49173;43.164;27.786;2022-11-22T06:14:25;18.98;;;13.10;;
63087;SDS011;49173;43.164;27.786;2022-11-22T06:16:51;15.63;;;11.73;;
63087;SDS011;49173;43.164;27.786;2022-11-22T06:19:17;18.90;;;12.35;;
63087;SDS011;49173;43.164;27.786;2022-11-22T06:21:42;15.82;;;11.95;;
63087;SDS011;49173;43.164;27.786;2022-11-22T06:24:09;16.90;;;12.70;;
63087;SDS011;49173;43.164;27.786;2022-11-22T06:26:35;20.85;;;14.40;;
63087;SDS011;49173;43.164;27.786;2022-11-22T06:29:01;26.20;;;15.32;;
63087;SDS011;49173;43.164;27.786;2022-11-22T06:31:27;19.27;;;12.80;;
63087;SDS011;49173;43.164;27.786;2022-11-22T06:33:54;19.70;;;12.77;;
63087;SDS011;49173;43.164;27.786;2022-11-22T06:36:25;18.55;;;12.85;;
63087;SDS011;49173;43.164;27.786;2022-11-22T06:38:52;15.90;;;12.23;;
63087;SDS011;49173;43.164;27.786;2022-11-22T06:41:30;17.90;;;11.50;;
63087;SDS011;49173;43.164;27.786;2022-11-22T06:43:57;19.55;;;13.07;;
63087;SDS011;49173;43.164;27.786;2022-11-22T06:46:24;15.57;;;12.05;;
63087;SDS011;49173;43.164;27.786;2022-11-22T06:48:51;19.63;;;13.65;;
63087;SDS011;49173;43.164;27.786;2022-11-22T06:51:18;17.42;;;13.10;;
63087;SDS011;49173;43.164;27.786;2022-11-22T06:53:46;18.60;;;13.35;;
63087;SDS011;49173;43.164;27.786;2022-11-22T06:56:14;16.88;;;13.20;;
63087;SDS011;49173;43.164;27.786;2022-11-22T06:58:43;17.88;;;13.63;;
63087;SDS011;49173;43.164;27.786;2022-11-22T07:01:10;19.65;;;14.88;;
63087;SDS011;49173;43.164;27.786;2022-11-22T07:03:38;21.02;;;14.70;;
63087;SDS011;49173;43.164;27.786;2022-11-22T07:06:05;21.33;;;13.02;;
63087;SDS011;49173;43.164;27.786;2022-11-22T07:08:32;16.75;;;12.63;;
63087;SDS011;49173;43.164;27.786;2022-11-22T07:11:03;17.67;;;12.57;;
63087;SDS011;49173;43.164;27.786;2022-11-22T07:13:29;18.05;;;13.13;;
63087;SDS011;49173;43.164;27.786;2022-11-22T07:15:56;18.50;;;13.00;;
63087;SDS011;49173;43.164;27.786;2022-11-22T07:18:24;18.80;;;13.13;;
63087;SDS011;49173;43.164;27.786;2022-11-22T07:20:50;16.70;;;13.07;;
63087;SDS011;49173;43.164;27.786;2022-11-22T07:23:16;18.90;;;13.23;;
63087;SDS011;49173;43.164;27.786;2022-11-22T07:25:44;18.90;;;14.35;;
63087;SDS011;49173;43.164;27.786;2022-11-22T07:28:11;21.23;;;14.57;;
63087;SDS011;49173;43.164;27.786;2022-11-22T07:30:38;19.60;;;15.35;;
63087;SDS011;49173;43.164;27.786;2022-11-22T07:33:04;20.85;;;14.30;;
63087;SDS011;49173;43.164;27.786;2022-11-22T07:35:30;16.83;;;12.45;;
63087;SDS011;49173;43.164;27.786;2022-11-22T07:37:57;19.98;;;13.60;;
63087;SDS011;49173;43.164;27.786;2022-11-22T07:40:22;17.83;;;12.75;;
63087;SDS011;49173;43.164;27.786;2022-11-22T07:42:48;20.40;;;13.27;;
63087;SDS011;49173;43.164;27.786;2022-11-22T07:45:14;17.75;;;11.05;;
63087;SDS011;49173;43.164;27.786;2022-11-22T07:47:40;18.02;;;12.00;;
63087;SDS011;49173;43.164;27.786;2022-11-22T07:50:06;18.77;;;12.00;;
63087;SDS011;49173;43.164;27.786;2022-11-22T07:52:32;17.02;;;11.32;;
63087;SDS011;49173;43.164;27.786;2022-11-22T07:54:58;15.88;;;11.25;;
63087;SDS011;49173;43.164;27.786;2022-11-22T07:57:24;15.95;;;10.60;;
63087;SDS011;49173;43.164;27.786;2022-11-22T07:59:49;13.25;;;10.65;;
63087;SDS011;49173;43.164;27.786;2022-11-22T08:02:15;12.57;;;9.95;;
63087;SDS011;49173;43.164;27.786;2022-11-22T08:04:41;12.35;;;9.90;;
63087;SDS011;49173;43.164;27.786;2022-11-22T08:07:07;13.25;;;10.35;;
63087;SDS011;49173;43.164;27.786;2022-11-22T08:09:34;12.45;;;9.07;;
63087;SDS011;49173;43.164;27.786;2022-11-22T08:12:00;11.70;;;9.60;;
63087;SDS011;49173;43.164;27.786;2022-11-22T08:14:26;12.38;;;9.23;;
63087;SDS011;49173;43.164;27.786;2022-11-22T08:16:52;12.75;;;10.35;;
63087;SDS011;49173;43.164;27.786;2022-11-22T08:19:21;13.52;;;9.75;;
63087;SDS011;49173;43.164;27.786;2022-11-22T08:21:47;16.80;;;9.57;;
63087;SDS011;49173;43.164;27.786;2022-11-22T08:24:14;12.75;;;10.70;;
63087;SDS011;49173;43.164;27.786;2022-11-22T08:26:41;12.73;;;9.35;;
63087;SDS011;49173;43.164;27.786;2022-11-22T08:29:08;11.45;;;8.80;;
63087;SDS011;49173;43.164;27.786;2022-11-22T08:31:37;12.35;;;8.82;;
63087;SDS011;49173;43.164;27.786;2022-11-22T08:34:03;13.13;;;10.07;;
63087;SDS011;49173;43.164;27.786;2022-11-22T08:36:29;14.02;;;9.45;;
63087;SDS011;49173;43.164;27.786;2022-11-22T08:38:56;12.38;;;8.98;;
63087;SDS011;49173;43.164;27.786;2022-11-22T08:41:22;11.98;;;9.90;;
63087;SDS011;49173;43.164;27.786;2022-11-22T08:43:48;13.90;;;9.65;;
63087;SDS011;49173;43.164;27.786;2022-11-22T08:46:15;15.18;;;10.85;;
63087;SDS011;49173;43.164;27.786;2022-11-22T08:48:41;12.38;;;9.27;;
63087;SDS011;49173;43.164;27.786;2022-11-22T08:51:08;14.05;;;9.00;;
63087;SDS011;49173;43.164;27.786;2022-11-22T08:53:35;14.55;;;9.80;;
63087;SDS011;49173;43.164;27.786;2022-11-22T08:56:04;12.25;;;9.05;;
63087;SDS011;49173;43.164;27.786;2022-11-22T08:58:31;11.32;;;9.10;;
63087;SDS011;49173;43.164;27.786;2022-11-22T09:01:08;13.77;;;8.55;;
63087;SDS011;49173;43.164;27.786;2022-11-22T09:03:36;11.05;;;8.13;;
63087;SDS011;49173;43.164;27.786;2022-11-22T09:06:02;12.15;;;9.02;;
63087;SDS011;49173;43.164;27.786;2022-11-22T09:08:35;11.48;;;7.97;;
63087;SDS011;49173;43.164;27.786;2022-11-22T09:11:03;13.65;;;9.60;;
63087;SDS011;49173;43.164;27.786;2022-11-22T09:13:32;12.65;;;9.30;;
63087;SDS011;49173;43.164;27.786;2022-11-22T09:16:04;10.52;;;7.35;;
63087;SDS011;49173;43.164;27.786;2022-11-22T09:18:35;10.38;;;7.38;;
63087;SDS011;49173;43.164;27.786;2022-11-22T09:21:02;11.27;;;7.63;;
63087;SDS011;49173;43.164;27.786;2022-11-22T09:23:30;11.95;;;7.72;;
63087;SDS011;49173;43.164;27.786;2022-11-22T09:25:57;11.13;;;8.02;;
63087;SDS011;49173;43.164;27.786;2022-11-22T09:28:24;13.80;;;9.05;;
63087;SDS011;49173;43.164;27.786;2022-11-22T09:30:57;11.35;;;7.45;;
63087;SDS011;49173;43.164;27.786;2022-11-22T09:33:30;13.73;;;8.82;;
63087;SDS011;49173;43.164;27.786;2022-11-22T09:36:02;13.15;;;8.88;;
63087;SDS011;49173;43.164;27.786;2022-11-22T09:38:29;12.38;;;9.00;;
63087;SDS011;49173;43.164;27.786;2022-11-22T09:40:56;12.88;;;9.05;;
63087;SDS011;49173;43.164;27.786;2022-11-22T09:57:36;10.57;;;7.78;;
63087;SDS011;49173;43.164;27.786;2022-11-22T10:00:21;9.15;;;7.72;;
63087;SDS011;49173;43.164;27.786;2022-11-22T10:02:54;9.30;;;7.30;;
63087;SDS011;49173;43.164;27.786;2022-11-22T10:05:51;10.73;;;8.13;;
63087;SDS011;49173;43.164;27.786;2022-11-22T10:08:40;9.88;;;7.93;;
63087;SDS011;49173;43.164;27.786;2022-11-22T10:13:56;12.07;;;8.75;;
63087;SDS011;49173;43.164;27.786;2022-11-22T10:16:37;12.18;;;9.25;;
63087;SDS011;49173;43.164;27.786;2022-11-22T10:19:10;11.85;;;9.10;;
63087;SDS011;49173;43.164;27.786;2022-11-22T10:21:39;11.73;;;8.73;;
63087;SDS011;49173;43.164;27.786;2022-11-22T10:24:09;10.35;;;8.32;;
63087;SDS011;49173;43.164;27.786;2022-11-22T10:26:40;9.82;;;8.00;;
63087;SDS011;49173;43.164;27.786;2022-11-22T10:40:41;9.90;;;7.55;;
63087;SDS011;49173;43.164;27.786;2022-11-22T10:43:21;11.95;;;7.25;;
63087;SDS011;49173;43.164;27.786;2022-11-22T10:46:08;10.45;;;7.40;;
63087;SDS011;49173;43.164;27.786;2022-11-22T10:51:58;7.88;;;6.03;;
63087;SDS011;49173;43.164;27.786;2022-11-22T10:54:41;7.95;;;5.97;;
63087;SDS011;49173;43.164;27.786;2022-11-22T10:57:15;8.23;;;5.97;;
63087;SDS011;49173;43.164;27.786;2022-11-22T11:03:11;8.45;;;6.07;;
63087;SDS011;49173;43.164;27.786;2022-11-22T11:06:16;7.43;;;5.25;;
63087;SDS011;49173;43.164;27.786;2022-11-22T11:08:48;7.63;;;5.20;;
63087;SDS011;49173;43.164;27.786;2022-11-22T11:11:20;7.40;;;5.18;;
63087;SDS011;49173;43.164;27.786;2022-11-22T11:13:49;6.90;;;5.28;;
63087;SDS011;49173;43.164;27.786;2022-11-22T11:16:19;7.32;;;4.70;;
63087;SDS011;49173;43.164;27.786;2022-11-22T11:21:22;8.27;;;5.00;;
63087;SDS011;49173;43.164;27.786;2022-11-22T11:23:48;6.78;;;4.70;;
63087;SDS011;49173;43.164;27.786;2022-11-22T11:31:41;6.03;;;4.55;;
63087;SDS011;49173;43.164;27.786;2022-11-22T11:36:53;7.07;;;4.53;;
63087;SDS011;49173;43.164;27.786;2022-11-22T11:39:22;8.63;;;5.25;;
63087;SDS011;49173;43.164;27.786;2022-11-22T11:41:52;6.97;;;5.20;;
63087;SDS011;49173;43.164;27.786;2022-11-22T11:44:28;7.18;;;4.80;;
63087;SDS011;49173;43.164;27.786;2022-11-22T11:46:57;7.03;;;4.97;;
63087;SDS011;49173;43.164;27.786;2022-11-22T11:49:24;6.78;;;4.68;;
63087;SDS011;49173;43.164;27.786;2022-11-22T11:51:59;8.52;;;4.70;;
63087;SDS011;49173;43.164;27.786;2022-11-22T11:54:38;6.78;;;4.00;;
63087;SDS011;49173;43.164;27.786;2022-11-22T11:57:14;6.32;;;3.88;;
63087;SDS011;49173;43.164;27.786;2022-11-22T12:00:00;7.68;;;3.67;;
63087;SDS011;49173;43.164;27.786;2022-11-22T12:02:33;4.45;;;3.53;;
63087;SDS011;49173;43.164;27.786;2022-11-22T12:10:54;5.13;;;4.00;;
63087;SDS011;49173;43.164;27.786;2022-11-22T12:13:30;9.32;;;3.80;;
63087;SDS011;49173;43.164;27.786;2022-11-22T12:15:57;5.70;;;4.22;;
63087;SDS011;49173;43.164;27.786;2022-11-22T12:27:10;16.30;;;9.45;;
63087;SDS011;49173;43.164;27.786;2022-11-22T12:32:05;14.02;;;8.02;;
63087;SDS011;49173;43.164;27.786;2022-11-22T12:38:09;8.30;;;5.35;;
63087;SDS011;49173;43.164;27.786;2022-11-22T12:40:25;4.18;;;3.10;;
63087;SDS011;49173;43.164;27.786;2022-11-22T12:42:55;5.30;;;3.30;;
63087;SDS011;49173;43.164;27.786;2022-11-22T12:51:11;4.55;;;2.75;;
63087;SDS011;49173;43.164;27.786;2022-11-22T12:53:50;4.95;;;3.10;;
63087;SDS011;49173;43.164;27.786;2022-11-22T12:59:18;6.00;;;2.90;;
63087;SDS011;49173;43.164;27.786;2022-11-22T13:01:57;4.60;;;2.70;;
63087;SDS011;49173;43.164;27.786;2022-11-22T13:04:49;4.05;;;2.83;;
63087;SDS011;49173;43.164;27.786;2022-11-22T13:10:54;3.53;;;2.63;;
63087;SDS011;49173;43.164;27.786;2022-11-22T13:13:33;3.83;;;2.70;;
63087;SDS011;49173;43.164;27.786;2022-11-22T13:16:05;3.95;;;2.58;;
63087;SDS011;49173;43.164;27.786;2022-11-22T13:18:35;3.15;;;2.65;;
63087;SDS011;49173;43.164;27.786;2022-11-22T13:26:45;3.33;;;2.50;;
63087;SDS011;49173;43.164;27.786;2022-11-22T13:29:18;4.47;;;2.92;;
63087;SDS011;49173;43.164;27.786;2022-11-22T13:34:30;6.20;;;3.20;;
63087;SDS011;49173;43.164;27.786;2022-11-22T13:37:10;4.85;;;3.90;;
63087;SDS011;49173;43.164;27.786;2022-11-22T13:39:44;3.80;;;3.10;;
63087;SDS011;49173;43.164;27.786;2022-11-22T13:42:25;9.97;;;6.47;;
63087;SDS011;49173;43.164;27.786;2022-11-22T13:49:59;11.45;;;6.90;;
63087;SDS011;49173;43.164;27.786;2022-11-22T13:55:30;30.77;;;18.02;;
63087;SDS011;49173;43.164;27.786;2022-11-22T14:00:50;26.90;;;16.77;;
63087;SDS011;49173;43.164;27.786;2022-11-22T14:03:21;32.45;;;18.27;;
63087;SDS011;49173;43.164;27.786;2022-11-22T14:05:51;21.55;;;13.02;;
63087;SDS011;49173;43.164;27.786;2022-11-22T14:08:30;11.45;;;8.48;;
63087;SDS011;49173;43.164;27.786;2022-11-22T14:13:47;34.00;;;20.55;;
63087;SDS011;49173;43.164;27.786;2022-11-22T14:22:43;29.83;;;15.60;;
63087;SDS011;49173;43.164;27.786;2022-11-22T14:25:39;24.85;;;13.82;;
63087;SDS011;49173;43.164;27.786;2022-11-22T14:30:55;21.30;;;11.45;;
63087;SDS011;49173;43.164;27.786;2022-11-22T14:33:23;29.90;;;15.20;;
63087;SDS011;49173;43.164;27.786;2022-11-22T14:38:32;38.58;;;21.63;;
63087;SDS011;49173;43.164;27.786;2022-11-22T14:44:00;58.38;;;33.33;;
63087;SDS011;49173;43.164;27.786;2022-11-22T14:46:36;81.80;;;45.17;;
63087;SDS011;49173;43.164;27.786;2022-11-22T14:49:09;37.13;;;21.17;;
63087;SDS011;49173;43.164;27.786;2022-11-22T14:51:39;37.03;;;23.67;;
63087;SDS011;49173;43.164;27.786;2022-11-22T14:54:20;52.45;;;31.02;;
63087;SDS011;49173;43.164;27.786;2022-11-22T14:56:47;30.55;;;21.25;;
63087;SDS011;49173;43.164;27.786;2022-11-22T15:10:23;27.25;;;17.25;;
63087;SDS011;49173;43.164;27.786;2022-11-22T15:15:33;48.67;;;25.17;;
63087;SDS011;49173;43.164;27.786;2022-11-22T15:18:46;40.22;;;23.00;;
63087;SDS011;49173;43.164;27.786;2022-11-22T15:21:17;41.33;;;25.75;;
63087;SDS011;49173;43.164;27.786;2022-11-22T15:23:54;36.10;;;23.65;;
63087;SDS011;49173;43.164;27.786;2022-11-22T15:26:22;13.63;;;10.13;;
63087;SDS011;49173;43.164;27.786;2022-11-22T15:28:50;9.95;;;7.85;;
63087;SDS011;49173;43.164;27.786;2022-11-22T15:31:25;9.27;;;7.25;;
63087;SDS011;49173;43.164;27.786;2022-11-22T15:33:54;8.40;;;7.38;;
63087;SDS011;49173;43.164;27.786;2022-11-22T15:39:26;6.47;;;5.57;;
63087;SDS011;49173;43.164;27.786;2022-11-22T15:41:54;11.30;;;6.35;;
63087;SDS011;49173;43.164;27.786;2022-11-22T15:44:22;6.78;;;5.57;;
63087;SDS011;49173;43.164;27.786;2022-11-22T15:46:48;7.78;;;6.18;;
63087;SDS011;49173;43.164;27.786;2022-11-22T15:49:16;7.65;;;5.82;;
63087;SDS011;49173;43.164;27.786;2022-11-22T15:54:23;7.15;;;5.28;;
63087;SDS011;49173;43.164;27.786;2022-11-22T15:56:51;7.95;;;4.70;;
63087;SDS011;49173;43.164;27.786;2022-11-22T15:59:25;7.15;;;5.20;;
63087;SDS011;49173;43.164;27.786;2022-11-22T16:01:54;10.80;;;7.40;;
63087;SDS011;49173;43.164;27.786;2022-11-22T16:04:24;13.35;;;9.55;;
63087;SDS011;49173;43.164;27.786;2022-11-22T16:06:59;11.55;;;8.10;;
63087;SDS011;49173;43.164;27.786;2022-11-22T16:11:58;12.05;;;9.10;;
63087;SDS011;49173;43.164;27.786;2022-11-22T16:19:52;6.40;;;5.10;;
63087;SDS011;49173;43.164;27.786;2022-11-22T16:22:38;7.78;;;4.68;;
63087;SDS011;49173;43.164;27.786;2022-11-22T16:25:19;5.60;;;4.20;;
63087;SDS011;49173;43.164;27.786;2022-11-22T16:28:25;6.68;;;4.53;;
63087;SDS011;49173;43.164;27.786;2022-11-22T16:31:00;5.25;;;3.78;;
63087;SDS011;49173;43.164;27.786;2022-11-22T16:33:46;6.18;;;3.90;;
63087;SDS011;49173;43.164;27.786;2022-11-22T16:36:12;5.85;;;3.80;;
63087;SDS011;49173;43.164;27.786;2022-11-22T16:38:39;4.93;;;3.70;;
63087;SDS011;49173;43.164;27.786;2022-11-22T16:41:10;4.43;;;3.53;;
63087;SDS011;49173;43.164;27.786;2022-11-22T16:43:54;7.88;;;5.30;;
63087;SDS011;49173;43.164;27.786;2022-11-22T16:46:24;6.45;;;5.60;;
63087;SDS011;49173;43.164;27.786;2022-11-22T16:48:50;7.32;;;4.68;;
63087;SDS011;49173;43.164;27.786;2022-11-22T16:51:23;7.68;;;5.57;;
63087;SDS011;49173;43.164;27.786;2022-11-22T16:53:52;10.85;;;8.32;;
63087;SDS011;49173;43.164;27.786;2022-11-22T16:56:23;13.20;;;9.85;;
63087;SDS011;49173;43.164;27.786;2022-11-22T16:58:50;16.83;;;10.55;;
63087;SDS011;49173;43.164;27.786;2022-11-22T17:01:18;13.07;;;10.32;;